^^
Datos históricos de la estación: Murcia-Puente Tocinos
Diario Informe para Marzo 13, 2019 Unidades:  Inglés    Métrico   Ambas
Diario Semanal Mensual Anual Configurable
  Máximo: Mínimo: Media:
Temperatura: 72.7 °F 52.9 °F 61.3 °F
Punto de rocio: 51.3 °F 37.6 °F 46.2 °F
Humedad: 80% 28% 60%
Velocidad viento: 15mph 0mph 7mph
Racha viento: 29mph - -
Viento- - South
Presión: 30.3 in 30.1 in -
Precipitación: 0 in    
Historical Graphs
 
 
Tabla de datos para Marzo 13, 2019
Hora Temperatura Punto de rocio Presión Viento Velocidad viento Racha viento Humedad Intensidad lluvia(por hora) Nubes
00:00 59.2 °F 51.3 °F 30.2 in SSW 7 mph 10 mph 75% 0 in CLR
00:05 59 °F 51.1 °F 30.2 in SSW 6.4 mph 8.1 mph 75% 0 in CLR
00:10 58.8 °F 51.3 °F 30.2 in SSW 4.7 mph 6.9 mph 76% 0 in CLR
00:15 58.6 °F 51.1 °F 30.2 in SSW 4.7 mph 6.9 mph 76% 0 in CLR
00:20 58.6 °F 51.1 °F 30.1 in South 5.4 mph 5.8 mph 76% 0 in CLR
00:25 58.6 °F 51.1 °F 30.1 in South 5.4 mph 9.2 mph 76% 0 in CLR
00:30 58.3 °F 50.7 °F 30.1 in SSW 5.9 mph 8.1 mph 76% 0 in CLR
00:35 57.9 °F 50.7 °F 30.1 in SW 5.9 mph 6.9 mph 77% 0 in CLR
00:40 57.9 °F 50.7 °F 30.1 in SW 5.2 mph 6.9 mph 77% 0 in CLR
00:45 57.9 °F 50.7 °F 30.1 in WSW 5.2 mph 4.7 mph 77% 0 in CLR
00:50 57.7 °F 50.5 °F 30.1 in SW 4.3 mph 5.8 mph 77% 0 in CLR
00:55 57.7 °F 50.5 °F 30.1 in South 4.3 mph 5.8 mph 77% 0 in CLR
01:00 57.7 °F 50.5 °F 30.1 in South 5 mph 8 mph 77% 0 in CLR
01:05 57.6 °F 50.7 °F 30.1 in South 4 mph 8.1 mph 78% 0 in CLR
01:10 57 °F 50.2 °F 30.1 in SSW 5.9 mph 9.2 mph 78% 0 in CLR
01:15 56.8 °F 50.2 °F 30.1 in South 5.9 mph 4.7 mph 78% 0 in CLR
01:20 56.8 °F 50.4 °F 30.1 in South 4.7 mph 4.6 mph 79% 0 in CLR
01:25 56.7 °F 50.2 °F 30.1 in SSW 4.7 mph 6.9 mph 79% 0 in CLR
01:30 56.7 °F 50.2 °F 30.1 in SW 3.6 mph 5.8 mph 79% 0 in CLR
01:35 56.8 °F 50.4 °F 30.1 in SSW 3.6 mph 5.8 mph 79% 0 in CLR
01:40 57 °F 50.2 °F 30.1 in SW 4 mph 6.9 mph 78% 0 in CLR
01:45 57 °F 50.2 °F 30.1 in SSW 4 mph 4.6 mph 78% 0 in CLR
01:50 57 °F 50.2 °F 30.1 in SW 3.6 mph 5.8 mph 78% 0 in CLR
01:55 57.2 °F 50.2 °F 30.1 in WSW 3.6 mph 4.6 mph 77% 0 in CLR
02:00 57.2 °F 50.2 °F 30.1 in WSW 2 mph 5 mph 77% 0 in CLR
02:05 57.2 °F 50.2 °F 30.1 in SW 2.9 mph 5.8 mph 77% 0 in CLR
02:10 57.2 °F 50.2 °F 30.1 in SSW 2.9 mph 5.9 mph 77% 0 in CLR
02:15 57.2 °F 50.2 °F 30.1 in SW 2.9 mph 6.9 mph 77% 0 in CLR
02:20 57.4 °F 50.2 °F 30.1 in SSW 4.7 mph 9.2 mph 77% 0 in CLR
02:25 57.4 °F 50.2 °F 30.1 in SSW 4.7 mph 8.1 mph 77% 0 in CLR
02:30 57.4 °F 50.2 °F 30.1 in SSW 5.4 mph 9.2 mph 77% 0 in CLR
02:35 57.2 °F 50 °F 30.1 in SSW 6 mph 9 mph 77% 0 in CLR
02:40 56.8 °F 49.6 °F 30.1 in SSW 5.4 mph 6.9 mph 77% 0 in CLR
02:45 56.8 °F 49.6 °F 30.1 in South 5.4 mph 6.9 mph 77% 0 in CLR
02:50 56.7 °F 49.8 °F 30.1 in South 5.2 mph 5.8 mph 78% 0 in CLR
02:55 56.5 °F 49.6 °F 30.1 in SSE 5.2 mph 7.4 mph 78% 0 in CLR
03:00 56.1 °F 49.6 °F 30.1 in South 5 mph 9 mph 79% 0 in CLR
03:05 55.8 °F 49.6 °F 30.1 in SSW 5.2 mph 9.2 mph 80% 0 in CLR
03:10 55.8 °F 49.6 °F 30.1 in SW 6.2 mph 8.1 mph 80% 0 in CLR
03:15 55.8 °F 49.6 °F 30.1 in SW 6.2 mph 5.8 mph 80% 0 in CLR
03:20 55.8 °F 49.3 °F 30.1 in SW 4.3 mph 5.9 mph 79% 0 in CLR
03:25 55.9 °F 49.5 °F 30.1 in WSW 4.3 mph 4.6 mph 79% 0 in CLR
03:30 55.9 °F 49.3 °F 30.1 in SW 3.6 mph 4.6 mph 78% 0 in CLR
03:35 55.9 °F 49.3 °F 30.1 in SW 3.6 mph 4.6 mph 78% 0 in CLR
03:40 56.1 °F 49.5 °F 30.1 in WSW 2.4 mph 4.6 mph 78% 0 in CLR
03:45 55.9 °F 49.3 °F 30.1 in WSW 2.4 mph 2.4 mph 78% 0 in CLR
03:50 55.8 °F 48.9 °F 30.1 in WSW 2.4 mph 2.4 mph 78% 0 in CLR
03:55 55.8 °F 49.3 °F 30.1 in West 2.4 mph 4.6 mph 79% 0 in CLR
04:00 55.6 °F 49.3 °F 30.1 in West 2 mph 4 mph 79% 0 in CLR
04:05 55.2 °F 48.7 °F 30.1 in West 2.4 mph   79% 0 in CLR
04:10 55 °F 48 °F 30.1 in SE 1.4 mph 6.2 mph 77% 0 in CLR
04:15 54.1 °F 47.5 °F 30.1 in SSE 1.4 mph 6.9 mph 78% 0 in CLR
04:20 54 °F 47.8 °F 30.1 in SSW 5.2 mph 6.9 mph 80% 0 in CLR
04:25 54.1 °F 48 °F 30.1 in South 5.2 mph 4.7 mph 80% 0 in CLR
04:30 54.5 °F 48.6 °F 30.1 in South 4 mph 4.6 mph 80% 0 in CLR
04:35 54.9 °F 48.6 °F 30.1 in SSE 4 mph 6.9 mph 79% 0 in CLR
04:40 54.7 °F 48 °F 30.1 in SSE 4.3 mph 5.8 mph 78% 0 in CLR
04:45 54.3 °F 47.7 °F 30.1 in South 4.3 mph 6.9 mph 78% 0 in CLR
04:50 54.1 °F 47.5 °F 30.1 in South 3.6 mph 4.6 mph 78% 0 in CLR
04:55 54.1 °F 47.8 °F 30.1 in South 3.6 mph 4.6 mph 79% 0 in CLR
05:00 54.3 °F 47.8 °F 30.1 in SSW 3 mph 5 mph 79% 0 in CLR
05:05 54.3 °F 47.7 °F 30.1 in South 3.1 mph 5.8 mph 78% 0 in CLR
05:10 54.5 °F 47.8 °F 30.1 in SW 3.6 mph 4.6 mph 78% 0 in CLR
05:15 54.9 °F 47.8 °F 30.1 in SSW 3.6 mph 6.9 mph 77% 0 in CLR
05:20 54.9 °F 47.5 °F 30.1 in SSW 4.7 mph 6.9 mph 76% 0 in CLR
05:25 55 °F 47.7 °F 30.1 in South 4.7 mph 8.1 mph 76% 0 in CLR
05:30 54.9 °F 47.5 °F 30.1 in South 5.2 mph 6.9 mph 76% 0 in CLR
05:35 54.7 °F 47.3 °F 30.1 in SSW 5.2 mph 5.8 mph 76% 0 in CLR
05:40 54.7 °F 47.3 °F 30.1 in SSW 4.3 mph 4.7 mph 76% 0 in CLR
05:45 54.7 °F 46.9 °F 30.1 in South 4.3 mph 4.7 mph 75% 0 in CLR
05:50 54.9 °F 47.1 °F 30.1 in South 3.6 mph 4.6 mph 75% 0 in CLR
05:55 54.9 °F 46.8 °F 30.1 in South 3.6 mph 4.6 mph 74% 0 in CLR
06:00 54.9 °F 46.8 °F 30.1 in South 3 mph 6 mph 74% 0 in CLR
06:05 55 °F 46.6 °F 30.1 in SSW 3.6 mph 5.8 mph 73% 0 in CLR
06:10 55 °F 46.6 °F 30.1 in SSW 3.1 mph 4.6 mph 73% 0 in CLR
06:15 55.2 °F 46.8 °F 30.1 in SW 3.1 mph 4.6 mph 73% 0 in CLR
06:20 55.2 °F 46.2 °F 30.1 in WSW 3.1 mph 5.8 mph 72% 0 in CLR
06:25 55.6 °F 46.2 °F 30.1 in WSW 3.1 mph 5.8 mph 71% 0 in CLR
06:30 55.8 °F 46 °F 30.1 in SW 4 mph 4.6 mph 70% 0 in CLR
06:35 55.9 °F 46.2 °F 30.1 in SW 4 mph 2.4 mph 70% 0 in CLR
06:40 55.9 °F 46.2 °F 30.1 in SW 2.4 mph 4 mph 70% 0 in CLR
06:45 55.8 °F 46 °F 30.1 in South 2.4 mph 4.6 mph 70% 0 in CLR
06:50 55.6 °F 45.9 °F 30.1 in South 3.1 mph 5.8 mph 70% 0 in CLR
06:55 55.2 °F 46 °F 30.1 in South 3.1 mph 4.6 mph 71% 0 in CLR
07:00 55.2 °F 46 °F 30.1 in South 3 mph 6 mph 71% 0 in CLR
07:05 55 °F 45.9 °F 30.1 in ESE 3.1 mph 6.9 mph 71% 0 in CLR
07:10 54.5 °F 45.7 °F 30.1 in SSE 4.7 mph 6.9 mph 72% 0 in CLR
07:15 53.8 °F 45.3 °F 30.1 in SSE 4.7 mph 6.9 mph 73% 0 in CLR
07:20 53.2 °F 45.1 °F 30.1 in SSE 4.7 mph 6.9 mph 74% 0 in CLR
07:25 52.9 °F 45.1 °F 30.1 in South 4.7 mph 4.6 mph 75% 0 in CLR
07:30 53.1 °F 45.7 °F 30.1 in SSE 4.3 mph 8.1 mph 76% 0 in CLR
07:35 53.2 °F 45.5 °F 30.1 in South 4.3 mph 7.6 mph 75% 0 in CLR
07:40 53.6 °F 45.5 °F 30.1 in South 5.4 mph 5.9 mph 74% 0 in CLR
07:45 54.1 °F 45.7 °F 30.1 in South 5.4 mph 6.9 mph 73% 0 in CLR
07:50 54.5 °F 45.7 °F 30.1 in SSE 4.7 mph 5.8 mph 72% 0 in CLR
07:55 54.9 °F 46 °F 30.1 in SSW 4.7 mph 4.6 mph 72% 0 in CLR
08:00 55.2 °F 46 °F 30.1 in SSW 2 mph 5 mph 71% 0 in CLR
08:05 55.9 °F 46.2 °F 30.1 in SSW 2.9 mph 2.4 mph 70% 0 in CLR
08:10 56.3 °F 46.2 °F 30.1 in SSW 2 mph   69% 0 in CLR
08:15 56.8 °F 46.4 °F 30.1 in NNW 2 mph 6.2 mph 68% 0 in CLR
08:20 57.4 °F 46.9 °F 30.1 in SSW 2 mph 5.8 mph 68% 0 in CLR
08:25 57.9 °F 46.6 °F 30.1 in WNW 2 mph 4.6 mph 66% 0 in CLR
08:30 58.6 °F 46.9 °F 30.1 in WNW 3.1 mph 3.5 mph 65% 0 in CLR
08:35 59.2 °F 46.9 °F 30.1 in West 3.1 mph 4.6 mph 64% 0 in CLR
08:40 59.7 °F 47.1 °F 30.1 in West 2.4 mph 5.8 mph 63% 0 in CLR
08:45 60.3 °F 46.8 °F 30.1 in WNW 2.4 mph 7.4 mph 61% 0 in CLR
08:50 61.2 °F 46.8 °F 30.1 in WNW 4 mph 6.9 mph 59% 0 in CLR
08:55 62.1 °F 46.6 °F 30.1 in WNW 4 mph 6.9 mph 57% 0 in CLR
09:00 62.4 °F 46 °F 30.1 in WNW 6 mph 12 mph 55% 0 in CLR
09:05 63 °F 46 °F 30.1 in WNW 5.9 mph 8.1 mph 54% 0 in CLR
09:10 63.3 °F 45.9 °F 30.1 in WNW 5.9 mph 9.2 mph 53% 0 in CLR
09:15 63.9 °F 45.3 °F 30.1 in WNW 5.9 mph 12.7 mph 51% 0 in CLR
09:20 64.8 °F 45.1 °F 30.1 in WNW 7.4 mph 12.7 mph 49% 0 in CLR
09:25 65.3 °F 45.1 °F 30.1 in NW 7.4 mph 6.9 mph 48% 0 in CLR
09:30 65.7 °F 45.3 °F 30.1 in NW 7.4 mph 14 mph 48% 0 in CLR
09:35 65.8 °F 45 °F 30.1 in NW 7.4 mph 13.8 mph 47% 0 in CLR
09:40 66 °F 45.1 °F 30.1 in NW 8.7 mph 15 mph 47% 0 in CLR
09:45 66.4 °F 45 °F 30.1 in NW 8.7 mph 13.8 mph 46% 0 in CLR
09:50 66.6 °F 44.4 °F 30.1 in NW 10 mph 18.4 mph 45% 0 in CLR
09:55 66.7 °F 44.8 °F 30.1 in WNW 10 mph 19.6 mph 45% 0 in CLR
10:00 66.9 °F 45 °F 30.1 in NW 13 mph 21 mph 45% 0 in CLR
10:05 67.3 °F 45.1 °F 30.1 in NNW 12.5 mph 20.7 mph 45% 0 in CLR
10:10 67.1 °F 44.4 °F 30.1 in WNW 11.8 mph 17.3 mph 44% 0 in CLR
10:15 66.9 °F 44.2 °F 30.1 in NW 11.8 mph 18.4 mph 44% 0 in CLR
10:20 66.9 °F 45 °F 30.2 in WNW 12.3 mph 17.3 mph 45% 0 in CLR
10:25 66.9 °F 45 °F 30.2 in WNW 12.3 mph 11.5 mph 45% 0 in CLR
10:30 66.7 °F 44.8 °F 30.2 in NW 9.7 mph 17.3 mph 45% 0 in CLR
10:35 66.6 °F 44.4 °F 30.2 in NW 9.7 mph 13.8 mph 45% 0 in CLR
10:40 66.6 °F 44.4 °F 30.2 in NNW 10.7 mph 18.4 mph 45% 0 in CLR
10:45 66.4 °F 44.4 °F 30.2 in NW 10.7 mph 20.7 mph 45% 0 in CLR
10:50 66.4 °F 44.4 °F 30.2 in WNW 12.3 mph 13.8 mph 45% 0 in CLR
10:55 66.4 °F 43.9 °F 30.2 in WNW 12.3 mph 18.4 mph 44% 0 in CLR
11:00 66.4 °F 43.9 °F 30.2 in NW 12 mph 20 mph 44% 0 in CLR
11:05 66.6 °F 44.1 °F 30.2 in WNW 11.4 mph 15 mph 44% 0 in CLR
11:10 66.9 °F 44.2 °F 30.2 in West 11.2 mph 17.3 mph 44% 0 in CLR
11:15 67.3 °F 44.1 °F 30.2 in NW 11.2 mph 16.1 mph 43% 0 in CLR
11:20 67.6 °F 44.2 °F 30.2 in NNW 10.7 mph 17 mph 43% 0 in CLR
11:25 67.5 °F 43.5 °F 30.2 in WNW 10.7 mph 18.4 mph 42% 0 in CLR
11:30 67.6 °F 43.2 °F 30.2 in WNW 13 mph 24.2 mph 41% 0 in CLR
11:35 67.6 °F 43.2 °F 30.2 in NW 13 mph 23 mph 41% 0 in CLR
11:40 68 °F 43.3 °F 30.2 in WNW 14.7 mph 15.9 mph 41% 0 in CLR
11:45 68.5 °F 43.2 °F 30.2 in WNW 14.7 mph 19.6 mph 40% 0 in CLR
11:50 68.7 °F 43.3 °F 30.2 in WNW 10.7 mph 19.6 mph 40% 0 in CLR
11:55 69.1 °F 43.2 °F 30.2 in NW 10.7 mph 15.6 mph 39% 0 in CLR
12:00 69.3 °F 43.2 °F 30.2 in WNW 13 mph 22 mph 39% 0 in CLR
12:05 69.3 °F 43.2 °F 30.2 in WSW 12.5 mph 13.8 mph 39% 0 in CLR
12:10 69.3 °F 43.2 °F 30.2 in West 10.7 mph 9.2 mph 39% 0 in CLR
12:15 69.6 °F 43.5 °F 30.2 in WNW 10.7 mph 10.4 mph 39% 0 in CLR
12:20 70 °F 43.2 °F 30.2 in West 6.4 mph 13.8 mph 38% 0 in CLR
12:25 70.3 °F 42.8 °F 30.2 in NNW 6.4 mph 16.1 mph 37% 0 in CLR
12:30 70.3 °F 42.8 °F 30.2 in West 10 mph 12.7 mph 37% 0 in CLR
12:35 70.3 °F 42.8 °F 30.2 in WNW 10 mph 21.9 mph 37% 0 in CLR
12:40 70.7 °F 42.4 °F 30.2 in WNW 11.8 mph 20.7 mph 36% 0 in CLR
12:45 71.1 °F 42.6 °F 30.2 in West 11.8 mph 11.5 mph 36% 0 in CLR
12:50 71.2 °F 42.3 °F 30.2 in WNW 9.7 mph 17.3 mph 35% 0 in CLR
12:55 71.2 °F 41.4 °F 30.2 in WNW 9.7 mph 26.1 mph 34% 0 in CLR
13:00 71.1 °F 41.2 °F 30.2 in WNW 14 mph 29 mph 34% 0 in CLR
13:05 70.9 °F 41.2 °F 30.2 in NW 14 mph 21.9 mph 34% 0 in CLR
13:10 70.7 °F 40.8 °F 30.2 in NW 13.5 mph 21.9 mph 34% 0 in CLR
13:15 70.3 °F 40.6 °F 30.2 in NW 13.5 mph 17.3 mph 34% 0 in CLR
13:20 70.3 °F 40.6 °F 30.2 in NW 12.5 mph 17.3 mph 34% 0 in CLR
13:25 70.9 °F 41.2 °F 30.2 in WNW 12.5 mph 21.9 mph 34% 0 in CLR
13:30 70.7 °F 40.8 °F 30.2 in West 13 mph 23 mph 34% 0 in CLR
13:35 71.1 °F 40.5 °F 30.2 in WNW 13 mph 20.7 mph 33% 0 in CLR
13:40 71.4 °F 40.8 °F 30.2 in NW 13.7 mph 20.7 mph 33% 0 in CLR
13:45 71.1 °F 40.5 °F 30.2 in NW 13.7 mph 17.5 mph 33% 0 in CLR
13:50 71.1 °F 41.4 °F 30.2 in West 13.7 mph 17.3 mph 34% 0 in CLR
13:55 71.2 °F 40.6 °F 30.2 in West 13.7 mph 20.7 mph 33% 0 in CLR
14:00 71.4 °F 40.8 °F 30.2 in West 14 mph 22 mph 33% 0 in CLR
14:05 71.4 °F 40.8 °F 30.2 in WNW 13.5 mph 21.9 mph 33% 0 in CLR
14:10 71.2 °F 40.6 °F 30.2 in WNW 13 mph 21 mph 33% 0 in CLR
14:15 71.2 °F 39.9 °F 30.2 in West 13 mph 22.3 mph 32% 0 in CLR
14:20 71.4 °F 39.9 °F 30.1 in West 13 mph 18.4 mph 32% 0 in CLR
14:25 71.8 °F 40.3 °F 30.1 in West 13 mph 19.6 mph 32% 0 in CLR
14:30 72 °F 40.5 °F 30.1 in West 11.8 mph 19.2 mph 32% 0 in CLR
14:35 71.4 °F 39.9 °F 30.1 in NW 11.8 mph 16.1 mph 32% 0 in CLR
14:40 71.8 °F 39.6 °F 30.1 in West 11.4 mph 24.2 mph 31% 0 in CLR
14:45 71.8 °F 40.3 °F 30.1 in WNW 11.4 mph 18.4 mph 32% 0 in CLR
14:50 71.8 °F 39.6 °F 30.1 in WNW 12.3 mph 13.8 mph 31% 0 in CLR
14:55 71.6 °F 39.4 °F 30.1 in NW 12.3 mph 16.1 mph 31% 0 in CLR
15:00 71.8 °F 39.6 °F 30.1 in WNW 10 mph 17 mph 31% 0 in CLR
15:05 72 °F 39.7 °F 30.1 in WNW 10 mph 17.3 mph 31% 0 in CLR
15:10 72.3 °F 39 °F 30.1 in West 9.2 mph 23 mph 30% 0 in CLR
15:15 72.1 °F 39 °F 30.1 in WNW 9.2 mph 20.7 mph 30% 0 in CLR
15:20 72.7 °F 38.7 °F 30.1 in WSW 12.5 mph 18.4 mph 29% 0 in CLR
15:25 72.7 °F 37.8 °F 30.1 in West 12.5 mph 24.2 mph 28% 0 in CLR
15:30 72.5 °F 37.6 °F 30.1 in WNW 13.5 mph 15 mph 28% 0 in CLR
15:34 72.7 °F 38.7 °F 30.1 in NNW 13.5 mph 16.1 mph 29% 0 in CLR
15:40 72.3 °F 46.6 °F 30.1 in NNW 10.2 mph 10.4 mph 40% 0 in CLR
15:45 72.3 °F 39.9 °F 30.1 in ENE 10.2 mph 10.4 mph 31% 0 in CLR
15:50 71.2 °F 48.2 °F 30.1 in NE 5.9 mph 23 mph 44% 0 in CLR
15:55 69.3 °F 49.3 °F 30.1 in NE 5.9 mph 23 mph 49% 0 in CLR
16:00 68.5 °F 49.3 °F 30.1 in NE 15 mph 21 mph 50% 0 in CLR
16:05 68.5 °F 49.6 °F 30.1 in ENE 14.5 mph 19.6 mph 51% 0 in CLR
16:10 68.4 °F 48.6 °F 30.1 in NE 9.7 mph 11.5 mph 49% 0 in CLR
16:15 68.4 °F 49.5 °F 30.1 in ENE 9.7 mph 10.4 mph 51% 0 in CLR
16:20 68.4 °F 49.5 °F 30.1 in NE 5.9 mph 13.8 mph 51% 0 in CLR
16:25 67.6 °F 49.5 °F 30.1 in ENE 5.9 mph 16.1 mph 52% 0 in CLR
16:30 67.3 °F 49.6 °F 30.1 in NE 10.7 mph 12.7 mph 53% 0 in CLR
16:35 67.3 °F 49.6 °F 30.1 in NE 10.7 mph 16.1 mph 53% 0 in CLR
16:40 67.3 °F 49.6 °F 30.1 in ENE 9.7 mph 17.3 mph 53% 0 in CLR
16:45 66.7 °F 49.6 °F 30.1 in NNW 9.7 mph 11.5 mph 54% 0 in CLR
16:50 66.9 °F 49.3 °F 30.1 in NE 8.7 mph 15 mph 53% 0 in CLR
16:55 66.7 °F 49.1 °F 30.1 in NE 8.7 mph 12.7 mph 53% 0 in CLR
17:00 66.7 °F 49.1 °F 30.1 in NE 10 mph 17 mph 53% 0 in CLR
17:05 66.4 °F 48.7 °F 30.2 in NNE 10 mph 17.5 mph 53% 0 in CLR
17:10 66 °F 48.4 °F 30.2 in ENE 11.4 mph 16.1 mph 53% 0 in CLR
17:15 65.8 °F 47.7 °F 30.2 in NE 11.4 mph 15 mph 52% 0 in CLR
17:20 66 °F 47.8 °F 30.2 in ENE 11.2 mph 20.7 mph 52% 0 in CLR
17:25 65.8 °F 47.7 °F 30.2 in ENE 11.2 mph 16.1 mph 52% 0 in CLR
17:30 65.7 °F 46.9 °F 30.2 in ENE 10 mph 18.4 mph 51% 0 in CLR
17:35 65.3 °F 47.1 °F 30.2 in ENE 10 mph 15.9 mph 52% 0 in CLR
17:40 64.9 °F 46.9 °F 30.2 in NE 11.2 mph 13.8 mph 52% 0 in CLR
17:45 64.9 °F 46.9 °F 30.2 in East 11.2 mph 12.7 mph 52% 0 in CLR
17:50 64.9 °F 46.9 °F 30.2 in NE 9.7 mph 15 mph 52% 0 in CLR
17:55 64.6 °F 46.6 °F 30.2 in NE 9.7 mph 16.1 mph 52% 0 in CLR
18:00 64.4 °F 46.4 °F 30.2 in NE 9 mph 15 mph 52% 0 in CLR
18:05 64.2 °F 46.2 °F 30.2 in NE 9.7 mph 11.2 mph 52% 0 in CLR
18:10 64 °F 46 °F 30.2 in ENE 8.5 mph 10.4 mph 52% 0 in CLR
18:15 64 °F 46.6 °F 30.2 in NE 8.5 mph 16.1 mph 53% 0 in CLR
18:20 63.9 °F 46.4 °F 30.2 in ENE 9.7 mph 13.8 mph 53% 0 in CLR
18:25 63.7 °F 46.2 °F 30.2 in North 9.7 mph 11.5 mph 53% 0 in CLR
18:30 63.7 °F 46.8 °F 30.2 in NNE 8.5 mph 10.4 mph 54% 0 in CLR
18:35 63.3 °F 46.4 °F 30.2 in NNE 8.5 mph 12.7 mph 54% 0 in CLR
18:40 63.3 °F 46.4 °F 30.2 in East 7.4 mph 8.1 mph 54% 0 in CLR
18:45 63.1 °F 46.8 °F 30.2 in ESE 7.4 mph 9.2 mph 55% 0 in CLR
18:50 62.6 °F 46.2 °F 30.2 in ESE 6.9 mph 13 mph 55% 0 in CLR
18:55 62.1 °F 46.6 °F 30.2 in ESE 6.9 mph 16.1 mph 57% 0 in CLR
19:00 61.9 °F 46.4 °F 30.2 in ESE 12 mph 17 mph 57% 0 in CLR
19:05 61.5 °F 46.6 °F 30.2 in ENE 11.2 mph 17.3 mph 58% 0 in CLR
19:10 61.3 °F 46.4 °F 30.2 in ESE 9.2 mph 16.1 mph 58% 0 in CLR
19:15 61.2 °F 46.8 °F 30.2 in ESE 9.2 mph 13.8 mph 59% 0 in CLR
19:20 61 °F 46.6 °F 30.2 in ENE 8.7 mph 6.9 mph 59% 0 in CLR
19:25 60.8 °F 46.4 °F 30.2 in East 8.7 mph 11.5 mph 59% 0 in CLR
19:30 60.6 °F 46.2 °F 30.2 in ESE 7.6 mph 9.2 mph 59% 0 in CLR
19:35 60.6 °F 46.2 °F 30.2 in East 7.6 mph 6.9 mph 59% 0 in CLR
19:40 60.4 °F 46.6 °F 30.2 in ESE 5.9 mph 9.2 mph 60% 0 in CLR
19:45 60.3 °F 46.8 °F 30.2 in ESE 5.9 mph 10.4 mph 61% 0 in CLR
19:50 60.1 °F 46.6 °F 30.2 in East 6.4 mph 8.1 mph 61% 0 in CLR
19:55 59.9 °F 46.4 °F 30.2 in SE 6.4 mph 10.4 mph 61% 0 in CLR
20:00 59.7 °F 46.2 °F 30.2 in ESE 6 mph 12 mph 61% 0 in CLR
20:05 59.7 °F 46.2 °F 30.2 in East 6.2 mph 13.8 mph 61% 0 in CLR
20:10 59.5 °F 46.6 °F 30.2 in ENE 7.4 mph 10.4 mph 62% 0 in CLR
20:15 59.5 °F 46.6 °F 30.2 in East 7.4 mph 15 mph 62% 0 in CLR
20:20 59.5 °F 46.9 °F 30.3 in ESE 8.1 mph 10.4 mph 63% 0 in CLR
20:25 59.4 °F 47.1 °F 30.3 in East 8.1 mph 5.8 mph 64% 0 in CLR
20:30 59.2 °F 46.9 °F 30.3 in NE 5.4 mph 4.7 mph 64% 0 in CLR
20:35 59.2 °F 46.9 °F 30.3 in ENE 5.4 mph 6.2 mph 64% 0 in CLR
20:40 59 °F 47.1 °F 30.3 in ENE 4.3 mph 6.9 mph 65% 0 in CLR
20:45 58.6 °F 46.6 °F 30.3 in NE 4.3 mph 5.9 mph 64% 0 in CLR
20:50 57.9 °F 46.2 °F 30.3 in NE 5.2 mph 8.1 mph 65% 0 in CLR
20:55 57.7 °F 46.6 °F 30.3 in NNE 5.2 mph 5.8 mph 66% 0 in CLR
21:00 57.6 °F 46.4 °F 30.3 in NE 5 mph 7 mph 66% 0 in CLR
21:05 57.4 °F 46 °F 30.3 in NE 4.7 mph 8.1 mph 66% 0 in CLR
21:10 57 °F 46.2 °F 30.3 in NE 5.9 mph 8.1 mph 67% 0 in CLR
21:15 57 °F 46.2 °F 30.3 in NE 5.9 mph 6.9 mph 67% 0 in CLR
21:20 56.8 °F 46.4 °F 30.3 in NE 5.9 mph 5.8 mph 68% 0 in CLR
21:25 56.8 °F 46.4 °F 30.3 in ENE 5.9 mph 4.6 mph 68% 0 in CLR
21:30 57 °F 46.9 °F 30.3 in NE 4 mph 4.6 mph 69% 0 in CLR
21:35 57 °F 46.9 °F 30.3 in NE 4 mph 4.6 mph 69% 0 in CLR
21:40 57 °F 46.9 °F 30.3 in NNE 3.1 mph 4 mph 69% 0 in CLR
21:45 56.7 °F 46.2 °F 30.3 in NE 3.1 mph 5.8 mph 68% 0 in CLR
21:50 56.1 °F 46 °F 30.3 in NNE 4 mph 5.8 mph 69% 0 in CLR
21:55 55.8 °F 46 °F 30.3 in NE 4 mph 5.8 mph 70% 0 in CLR
22:00 55.9 °F 46.2 °F 30.3 in NE 5 mph 6 mph 70% 0 in CLR
22:05 55.9 °F 46.8 °F 30.3 in NE 4 mph 4.6 mph 71% 0 in CLR
22:10 55.9 °F 46.8 °F 30.3 in NE 2.9 mph 2.3 mph 71% 0 in CLR
22:15 55.9 °F 46.8 °F 30.3 in NE 2.9 mph 4.6 mph 71% 0 in CLR
22:20 56.1 °F 46.6 °F 30.3 in NE 2.4 mph 2.3 mph 70% 0 in CLR
22:25 55.9 °F 46.2 °F 30.3 in NE 2.4 mph 1.2 mph 70% 0 in CLR
22:30 55.9 °F 46.2 °F 30.3 in Calm   4.6 mph 70% 0 in CLR
22:35 55.6 °F 46.2 °F 30.3 in Calm   4.6 mph 71% 0 in CLR
22:40 55.4 °F 46.2 °F 30.3 in NNW 3.1 mph 4.6 mph 71% 0 in CLR
22:45 55 °F 45.9 °F 30.3 in NNW 3.1 mph 3.5 mph 71% 0 in CLR
22:50 54.9 °F 45.7 °F 30.3 in NNW 2 mph 3.5 mph 71% 0 in CLR
22:55 54.7 °F 45.9 °F 30.3 in NE 2 mph 5.2 mph 72% 0 in CLR
23:00 54.3 °F 45.3 °F 30.3 in North 3 mph 8 mph 72% 0 in CLR
23:05 54.1 °F 45.7 °F 30.3 in NNE 3.1 mph 5.8 mph 73% 0 in CLR
23:10 54.1 °F 45.7 °F 30.3 in NE 2.9 mph 3.6 mph 73% 0 in CLR
23:15 54.1 °F 45.7 °F 30.3 in NE 2.9 mph 5.8 mph 73% 0 in CLR
23:20 54.1 °F 45.7 °F 30.3 in NE 3.1 mph 5.8 mph 73% 0 in CLR
23:25 54.1 °F 45.7 °F 30.3 in NE 3.1 mph 4.6 mph 73% 0 in CLR
23:30 54.1 °F 45.7 °F 30.3 in NE 3.6 mph 4.6 mph 73% 0 in CLR
23:35 54.1 °F 45.7 °F 30.3 in NE 3.6 mph 3.5 mph 73% 0 in CLR
23:40 54.1 °F 45.7 °F 30.3 in NE 2.9 mph 2.4 mph 73% 0 in CLR
23:45 54.1 °F 45.7 °F 30.3 in NE 2.9 mph 2.4 mph 73% 0 in CLR
23:50 54.1 °F 45.3 °F 30.3 in ENE 1.8 mph 3.5 mph 72% 0 in CLR
23:55 54 °F 45.5 °F 30.3 in ENE 1.8 mph 4.6 mph 73% 0 in CLR
Murcia-Puente Tocinos, España
Compliments of Weather Underground - 2.75 mb

La estación de MeteoMurcia.com, publica sus datos en los siguientes proyectos:

Weather Underground PWS IMURCIAP2 Meteoclimatic www.awekas.at

W3Counter
Web Analytics